Portada
METAR-TAF:

METAR-TAF

Aeroports :

Chino, Califòrnia, Estats Units d'Amèrica

latitud: 33-58-32N, longitud: 117-37-25W, altitud: 198 m

Observació

L'informe es va fer fa 16 minuts, a les 22:53 UTC
Vent 11 kt del Oest
Temperatura 28°C
Humitat 42%
Pressió 1013 hPa
Visibilitat: 16.1 km
Cel clar

METAR: KCNO 302253Z 27011KT 10SM CLR 28/14 A2990 RMK AO2 SLP120 T02780139

Hora: 16:09 (23:09 UTC)


TAF: manca

Observacions i pronòstics meteorològics de més de 4000 aeroports (METAR i TAF).

Les estacions disponibles són els punts grocs i vermells al mapa.

Posi el ratolí al punt desitjat per veure el nom de l'estació.

Feu clic per veure les observacions i els pronòstics meteorològics.

Per canviar el mapa: feu clic els botons verds amb una creu de color negre per apropar; al botó verd amb un guió per allunyar la imatge; o en les fletxes verdes per a mapes adjacents.


METAR-TAF: